KEAN/EAN METAR and TAF weather

Enter ICAO airport designator
Station Type Date Time Source
KEAN METAR 2021/05/14 04:55 UTC NOAA

KEAN 140455Z AUTO 00000KT 10SM SCT110 11/06 A3020 RMK AO2 T01050061


Station Type Date Time Source
KEAN Decoded METAR 2021/05/14 04:55 UTC NOAA

Station name not available
May 14, 2021 - 12:55 AM EDT / 2021.05.14 0455 UTC
Wind: Calm:0
Visibility: 10 mile(s):0
Sky conditions: partly cloudy
Temperature: 50.9 F (10.5 C)
Dew Point: 43.0 F (6.1 C)
Relative Humidity: 74%
Pressure (altimeter): 30.2 in. Hg (1022 hPa)
ob: KEAN 140455Z AUTO 00000KT 10SM SCT110 11/06 A3020 RMK AO2 T01050061
cycle: 5

Station Type Date Time Source
KEAN TAF UTC NOAA

Error!

Example: see airport list